Time;durP1;ratioP1;P1;durP2;ratioP2;P2;SDS_P1;SDS_P2;PMS_P1;PMS_P2;Temp;Humidity;BMP_temperature;BMP_pressure;BME280_temperature;BME280_humidity;BME280_pressure;Samples;Min_cycle;Max_cycle;Signal;HPM_P1;HPM_P2
2023/05/21 00:00:10;;;;;;;5.95;3.00;;;;;;;;;;4983268;28;25190;-77
2023/05/21 00:02:36;;;;;;;4.82;3.15;;;;;;;;;;4985409;28;25065;-76
2023/05/21 00:05:02;;;;;;;4.30;2.83;;;;;;;;;;4975923;28;24836;-76
2023/05/21 00:07:30;;;;;;;4.68;3.38;;;;;;;;;;4971642;28;25061;-78
2023/05/21 00:09:56;;;;;;;3.63;2.85;;;;;;;;;;4975312;28;25112;-76
2023/05/21 00:12:22;;;;;;;3.28;2.45;;;;;;;;;;4967992;28;25074;-74
2023/05/21 00:14:48;;;;;;;3.03;2.72;;;;;;;;;;4971907;28;25058;-75
2023/05/21 00:17:14;;;;;;;5.25;2.95;;;;;;;;;;4968289;28;25144;-74
2023/05/21 00:19:40;;;;;;;7.53;3.45;;;;;;;;;;4970592;28;25128;-75
2023/05/21 00:22:07;;;;;;;7.80;3.17;;;;;;;;;;4969564;28;25074;-75
2023/05/21 00:24:32;;;;;;;6.25;3.00;;;;;;;;;;4975496;28;25087;-74
2023/05/21 00:26:59;;;;;;;6.28;3.22;;;;;;;;;;4986094;28;25076;-75
2023/05/21 00:29:26;;;;;;;3.85;3.28;;;;;;;;;;4987134;28;25065;-76
2023/05/21 00:31:52;;;;;;;5.53;3.70;;;;;;;;;;4987035;28;25117;-78
2023/05/21 00:34:18;;;;;;;7.07;3.42;;;;;;;;;;4986913;28;25072;-78
2023/05/21 00:36:45;;;;;;;7.10;4.60;;;;;;;;;;4974810;28;25068;-76
2023/05/21 00:39:12;;;;;;;13.35;8.00;;;;;;;;;;4972311;28;25053;-77
2023/05/21 00:41:39;;;;;;;17.70;9.18;;;;;;;;;;4975481;28;25084;-75
2023/05/21 00:44:05;;;;;;;9.10;5.22;;;;;;;;;;4975617;28;25080;-76
2023/05/21 00:46:32;;;;;;;6.63;3.53;;;;;;;;;;4973931;28;25077;-77
2023/05/21 00:48:58;;;;;;;7.65;4.22;;;;;;;;;;4972620;28;25092;-75
2023/05/21 00:51:28;;;;;;;4.82;3.97;;;;;;;;;;4971286;28;25058;-75
2023/05/21 00:53:55;;;;;;;7.40;3.80;;;;;;;;;;4971840;28;25073;-76
2023/05/21 00:56:21;;;;;;;7.88;4.40;;;;;;;;;;4970791;28;25069;-78
2023/05/21 00:58:47;;;;;;;6.50;3.83;;;;;;;;;;4968980;28;25091;-75
2023/05/21 01:01:14;;;;;;;7.90;3.92;;;;;;;;;;4974162;28;25071;-75
2023/05/21 01:03:41;;;;;;;5.80;3.63;;;;;;;;;;4976112;28;25049;-77
2023/05/21 01:06:08;;;;;;;5.88;3.63;;;;;;;;;;4987639;28;25068;-77
2023/05/21 01:08:36;;;;;;;5.25;3.92;;;;;;;;;;4992783;28;25076;-77
2023/05/21 01:11:02;;;;;;;7.25;3.92;;;;;;;;;;4979885;28;25060;-75
2023/05/21 01:13:29;;;;;;;8.50;3.85;;;;;;;;;;4978313;28;25061;-75
2023/05/21 01:15:56;;;;;;;5.38;3.70;;;;;;;;;;4971853;28;25096;-77
2023/05/21 01:18:22;;;;;;;4.32;3.65;;;;;;;;;;4968491;28;25076;-74
2023/05/21 01:20:49;;;;;;;5.55;3.60;;;;;;;;;;4968268;28;25058;-75
2023/05/21 01:23:18;;;;;;;10.13;4.57;;;;;;;;;;4972207;28;25050;-75
2023/05/21 01:25:44;;;;;;;5.90;4.70;;;;;;;;;;4969529;28;25077;-74
2023/05/21 01:28:10;;;;;;;5.22;3.90;;;;;;;;;;4970254;28;25074;-74
2023/05/21 01:30:37;;;;;;;5.60;4.57;;;;;;;;;;4971663;28;25063;-78
2023/05/21 01:33:07;;;;;;;6.85;4.07;;;;;;;;;;4970537;28;25071;-74
2023/05/21 01:35:33;;;;;;;6.57;4.35;;;;;;;;;;4972882;28;25073;-76
2023/05/21 01:38:04;;;;;;;7.05;3.95;;;;;;;;;;4973225;28;25077;-76
2023/05/21 01:40:37;;;;;;;5.83;4.40;;;;;;;;;;4972140;28;25057;-76
2023/05/21 01:43:05;;;;;;;5.88;3.88;;;;;;;;;;4975375;28;25094;-77
2023/05/21 01:45:31;;;;;;;6.35;4.18;;;;;;;;;;4975091;28;25080;-76
2023/05/21 01:47:57;;;;;;;10.32;4.95;;;;;;;;;;4973252;28;25063;-77
2023/05/21 01:50:24;;;;;;;8.93;4.40;;;;;;;;;;4975424;28;25143;-76
2023/05/21 01:52:55;;;;;;;4.65;3.63;;;;;;;;;;4972344;28;25081;-76
2023/05/21 01:55:23;;;;;;;6.03;3.70;;;;;;;;;;4973126;28;25048;-75
2023/05/21 01:57:51;;;;;;;6.25;3.85;;;;;;;;;;4971976;28;25063;-77
2023/05/21 02:00:17;;;;;;;4.18;3.60;;;;;;;;;;4977595;28;25092;-76
2023/05/21 02:02:43;;;;;;;8.20;4.03;;;;;;;;;;4975741;28;25066;-75
2023/05/21 02:05:09;;;;;;;5.60;3.72;;;;;;;;;;4977422;28;25072;-77
2023/05/21 02:07:36;;;;;;;4.78;3.70;;;;;;;;;;4975481;28;25168;-76
2023/05/21 02:10:02;;;;;;;4.35;3.53;;;;;;;;;;4971057;28;25147;-77
2023/05/21 02:12:28;;;;;;;5.72;3.85;;;;;;;;;;4976148;28;25055;-75
2023/05/21 02:14:55;;;;;;;8.70;3.92;;;;;;;;;;4990881;28;25077;-78
2023/05/21 02:17:23;;;;;;;5.45;3.28;;;;;;;;;;4985908;28;25085;-75
2023/05/21 02:19:50;;;;;;;6.75;3.63;;;;;;;;;;4981511;28;25091;-76
2023/05/21 02:22:16;;;;;;;6.72;3.47;;;;;;;;;;4980255;28;25072;-75
2023/05/21 02:24:42;;;;;;;5.28;3.38;;;;;;;;;;4974492;28;25046;-75
2023/05/21 02:27:12;;;;;;;4.68;3.28;;;;;;;;;;4972782;28;25059;-76
2023/05/21 02:29:38;;;;;;;7.68;4.07;;;;;;;;;;4969312;28;25073;-75
2023/05/21 02:32:04;;;;;;;4.32;3.08;;;;;;;;;;4974364;28;25090;-76
2023/05/21 02:34:31;;;;;;;4.88;3.15;;;;;;;;;;4967799;28;25053;-76
2023/05/21 02:36:57;;;;;;;3.97;3.15;;;;;;;;;;4977023;28;25053;-76
2023/05/21 02:39:25;;;;;;;6.38;4.60;;;;;;;;;;4970625;28;25095;-78
2023/05/21 02:41:50;;;;;;;7.57;4.25;;;;;;;;;;4976674;28;25132;-76
2023/05/21 02:44:18;;;;;;;7.32;3.90;;;;;;;;;;4971923;28;25054;-76
2023/05/21 02:46:44;;;;;;;6.10;4.13;;;;;;;;;;4972587;28;25057;-78
2023/05/21 02:49:10;;;;;;;5.53;3.65;;;;;;;;;;4971447;28;25053;-78
2023/05/21 02:51:36;;;;;;;6.07;3.85;;;;;;;;;;4973078;28;25076;-78
2023/05/21 02:54:03;;;;;;;7.13;3.63;;;;;;;;;;4974747;28;25064;-76
2023/05/21 02:56:29;;;;;;;13.93;5.38;;;;;;;;;;4973947;28;25046;-80
2023/05/21 02:58:55;;;;;;;4.75;3.22;;;;;;;;;;4972511;28;25064;-75
2023/05/21 03:01:21;;;;;;;4.90;3.53;;;;;;;;;;4974903;28;25084;-76
2023/05/21 03:03:47;;;;;;;11.30;4.05;;;;;;;;;;4970171;28;25058;-77
2023/05/21 03:06:15;;;;;;;7.40;3.80;;;;;;;;;;4974428;28;25073;-78
2023/05/21 03:08:41;;;;;;;6.05;3.40;;;;;;;;;;4970953;28;25073;-77
2023/05/21 03:11:07;;;;;;;5.63;3.50;;;;;;;;;;4978075;28;25103;-76
2023/05/21 03:13:33;;;;;;;6.60;3.90;;;;;;;;;;4976648;28;25068;-75
2023/05/21 03:15:59;;;;;;;5.57;3.95;;;;;;;;;;4986676;28;25076;-78
2023/05/21 03:18:25;;;;;;;6.50;4.32;;;;;;;;;;4990661;28;25077;-77
2023/05/21 03:20:51;;;;;;;6.05;4.10;;;;;;;;;;4990033;28;25072;-77
2023/05/21 03:23:17;;;;;;;8.65;4.50;;;;;;;;;;4983351;28;25054;-78
2023/05/21 03:25:44;;;;;;;7.18;4.25;;;;;;;;;;4981497;28;25077;-76
2023/05/21 03:28:10;;;;;;;4.65;4.10;;;;;;;;;;4973859;28;25045;-78
2023/05/21 03:30:37;;;;;;;9.75;4.43;;;;;;;;;;4978481;28;25064;-78
2023/05/21 03:33:03;;;;;;;5.75;4.13;;;;;;;;;;4982193;28;25079;-73
2023/05/21 03:35:30;;;;;;;6.28;4.22;;;;;;;;;;4986631;28;25069;-77
2023/05/21 03:37:55;;;;;;;7.70;4.30;;;;;;;;;;4982578;28;25106;-75
2023/05/21 03:40:21;;;;;;;6.20;3.80;;;;;;;;;;4975839;28;25093;-77
2023/05/21 03:42:47;;;;;;;5.55;4.07;;;;;;;;;;4972940;28;25050;-75
2023/05/21 03:45:13;;;;;;;7.97;4.28;;;;;;;;;;4973942;28;25089;-76
2023/05/21 03:47:40;;;;;;;7.07;4.15;;;;;;;;;;4978850;28;25084;-75
2023/05/21 03:50:08;;;;;;;8.55;4.70;;;;;;;;;;4974455;28;25069;-76
2023/05/21 03:52:35;;;;;;;6.18;4.25;;;;;;;;;;4972075;28;25078;-76
2023/05/21 03:55:01;;;;;;;6.07;4.25;;;;;;;;;;4971744;28;25048;-77
2023/05/21 03:57:27;;;;;;;6.32;4.55;;;;;;;;;;4970249;28;25100;-77
2023/05/21 03:59:53;;;;;;;8.02;4.43;;;;;;;;;;4972391;28;25067;-76
2023/05/21 04:02:21;;;;;;;5.53;4.05;;;;;;;;;;4970761;28;25065;-77
2023/05/21 04:04:47;;;;;;;6.95;4.80;;;;;;;;;;4970964;28;25119;-76
2023/05/21 04:07:14;;;;;;;13.68;5.22;;;;;;;;;;4972883;28;25062;-75
2023/05/21 04:09:40;;;;;;;6.55;4.55;;;;;;;;;;4974333;28;25085;-76
2023/05/21 04:12:07;;;;;;;9.57;4.55;;;;;;;;;;4973551;28;25182;-78
2023/05/21 04:14:33;;;;;;;5.65;4.78;;;;;;;;;;4974978;28;25143;-77
2023/05/21 04:16:59;;;;;;;5.72;4.38;;;;;;;;;;4972669;28;25065;-75
2023/05/21 04:19:25;;;;;;;10.88;5.28;;;;;;;;;;4973614;28;25151;-75
2023/05/21 04:21:51;;;;;;;11.50;5.07;;;;;;;;;;4971103;28;25082;-76
2023/05/21 04:24:17;;;;;;;6.30;4.57;;;;;;;;;;4970066;28;25139;-77
2023/05/21 04:26:43;;;;;;;6.72;4.68;;;;;;;;;;4969017;28;25060;-77
2023/05/21 04:29:09;;;;;;;6.80;4.72;;;;;;;;;;4970087;28;25052;-76
2023/05/21 04:31:35;;;;;;;5.65;4.70;;;;;;;;;;4972009;28;25133;-75
2023/05/21 04:34:01;;;;;;;10.98;5.75;;;;;;;;;;4969946;28;25077;-78
2023/05/21 04:36:27;;;;;;;8.18;5.15;;;;;;;;;;4972202;28;25092;-78
2023/05/21 04:38:53;;;;;;;6.05;4.85;;;;;;;;;;4971881;28;25053;-76
2023/05/21 04:41:20;;;;;;;6.35;5.30;;;;;;;;;;4973129;28;25073;-76
2023/05/21 04:43:46;;;;;;;10.25;5.07;;;;;;;;;;4969075;28;25075;-76
2023/05/21 04:46:12;;;;;;;7.18;5.35;;;;;;;;;;4971160;28;25062;-76
2023/05/21 04:48:39;;;;;;;6.32;4.50;;;;;;;;;;4976747;28;25078;-76
2023/05/21 04:51:06;;;;;;;7.45;4.55;;;;;;;;;;4974695;28;25055;-75
2023/05/21 04:53:32;;;;;;;7.07;4.93;;;;;;;;;;4981812;28;25058;-76
2023/05/21 04:55:58;;;;;;;5.82;4.78;;;;;;;;;;4981705;28;25056;-77
2023/05/21 04:58:25;;;;;;;7.47;4.22;;;;;;;;;;4977590;28;25097;-75
2023/05/21 05:00:52;;;;;;;10.15;5.05;;;;;;;;;;4972049;28;25049;-77
2023/05/21 05:03:18;;;;;;;9.23;5.28;;;;;;;;;;4970175;28;25145;-77
2023/05/21 05:05:44;;;;;;;9.20;4.53;;;;;;;;;;4970210;28;25057;-76
2023/05/21 05:08:11;;;;;;;11.43;4.57;;;;;;;;;;4972307;28;25071;-75
2023/05/21 05:10:37;;;;;;;6.50;4.80;;;;;;;;;;4973776;28;25104;-77
2023/05/21 05:13:03;;;;;;;6.72;4.18;;;;;;;;;;4972447;28;25103;-76
2023/05/21 05:15:29;;;;;;;8.27;4.78;;;;;;;;;;4974281;28;25114;-76
2023/05/21 05:17:55;;;;;;;7.72;4.75;;;;;;;;;;4978184;28;25092;-77
2023/05/21 05:20:21;;;;;;;6.05;4.88;;;;;;;;;;4975107;28;25070;-76
2023/05/21 05:22:47;;;;;;;8.68;4.60;;;;;;;;;;4973099;28;25066;-75
2023/05/21 05:25:13;;;;;;;9.00;5.47;;;;;;;;;;4973360;28;25063;-74
2023/05/21 05:27:39;;;;;;;8.68;4.82;;;;;;;;;;4982135;28;25091;-78
2023/05/21 05:30:06;;;;;;;5.88;4.25;;;;;;;;;;4983675;28;25051;-74
2023/05/21 05:32:32;;;;;;;8.50;5.00;;;;;;;;;;4981958;28;25046;-76
2023/05/21 05:34:58;;;;;;;6.38;4.60;;;;;;;;;;4978291;28;25110;-76
2023/05/21 05:37:24;;;;;;;7.30;5.10;;;;;;;;;;4977634;28;25072;-75
2023/05/21 05:39:50;;;;;;;7.07;4.82;;;;;;;;;;4978122;28;25050;-78
2023/05/21 05:42:16;;;;;;;8.95;4.95;;;;;;;;;;4973812;28;25070;-74
2023/05/21 05:44:41;;;;;;;7.07;4.68;;;;;;;;;;4972823;28;25154;-75
2023/05/21 05:47:09;;;;;;;7.03;4.65;;;;;;;;;;4981810;28;25074;-75
2023/05/21 05:49:35;;;;;;;8.20;5.13;;;;;;;;;;4975604;28;25058;-74
2023/05/21 05:52:02;;;;;;;9.20;4.57;;;;;;;;;;4970000;28;25107;-77
2023/05/21 05:54:28;;;;;;;9.32;4.75;;;;;;;;;;4969463;28;25069;-75
2023/05/21 05:56:54;;;;;;;7.78;4.90;;;;;;;;;;4971522;28;25056;-77
2023/05/21 05:59:20;;;;;;;7.72;4.47;;;;;;;;;;4971028;28;25123;-73
2023/05/21 06:01:46;;;;;;;6.82;5.00;;;;;;;;;;4972228;28;25103;-76
2023/05/21 06:04:12;;;;;;;6.47;4.57;;;;;;;;;;4975349;28;25070;-76
2023/05/21 06:06:38;;;;;;;8.98;4.80;;;;;;;;;;4975321;28;25099;-76
2023/05/21 06:09:03;;;;;;;5.53;4.65;;;;;;;;;;4976317;28;25077;-77
2023/05/21 06:11:29;;;;;;;6.72;4.68;;;;;;;;;;4972246;28;25078;-78
2023/05/21 06:13:56;;;;;;;6.00;4.63;;;;;;;;;;4970564;28;25063;-77
2023/05/21 06:16:22;;;;;;;6.25;4.43;;;;;;;;;;4970813;28;25102;-78
2023/05/21 06:18:48;;;;;;;7.30;4.50;;;;;;;;;;4980206;28;25106;-76
2023/05/21 06:21:14;;;;;;;7.13;4.50;;;;;;;;;;4973350;28;25142;-79
2023/05/21 06:23:40;;;;;;;5.93;4.25;;;;;;;;;;4970995;28;25070;-77
2023/05/21 06:26:06;;;;;;;8.43;4.50;;;;;;;;;;4972748;28;25074;-77
2023/05/21 06:28:32;;;;;;;6.60;4.45;;;;;;;;;;4977256;28;25056;-76
2023/05/21 06:30:59;;;;;;;8.82;4.82;;;;;;;;;;4975363;28;25068;-75
2023/05/21 06:33:26;;;;;;;5.97;4.25;;;;;;;;;;4981001;28;25082;-75
2023/05/21 06:35:52;;;;;;;6.70;5.22;;;;;;;;;;4984703;28;25078;-79
2023/05/21 06:38:19;;;;;;;12.73;4.60;;;;;;;;;;4974624;28;25120;-76
2023/05/21 06:40:46;;;;;;;9.57;5.40;;;;;;;;;;4976704;28;25135;-76
2023/05/21 06:43:13;;;;;;;7.45;4.95;;;;;;;;;;4974659;28;25132;-76
2023/05/21 06:45:38;;;;;;;10.63;5.57;;;;;;;;;;4973168;28;25047;-76
2023/05/21 06:48:05;;;;;;;8.10;5.07;;;;;;;;;;4973866;28;25086;-79
2023/05/21 06:50:31;;;;;;;7.15;5.05;;;;;;;;;;4984503;28;25064;-77
2023/05/21 06:52:57;;;;;;;9.27;5.00;;;;;;;;;;4989493;28;25077;-76
2023/05/21 06:55:22;;;;;;;9.73;5.00;;;;;;;;;;4990138;28;25078;-78
2023/05/21 06:57:48;;;;;;;7.57;5.03;;;;;;;;;;4988198;28;25074;-77
2023/05/21 07:00:15;;;;;;;9.35;5.72;;;;;;;;;;4984501;28;25079;-79
2023/05/21 07:02:42;;;;;;;10.13;5.78;;;;;;;;;;4976746;28;25107;-77
2023/05/21 07:05:08;;;;;;;7.05;4.95;;;;;;;;;;4976164;28;25092;-77
2023/05/21 07:07:34;;;;;;;6.95;4.80;;;;;;;;;;4970999;28;25074;-76
2023/05/21 07:10:00;;;;;;;10.07;5.35;;;;;;;;;;4972068;28;25086;-75
2023/05/21 07:12:26;;;;;;;8.82;5.57;;;;;;;;;;4972791;28;25057;-78
2023/05/21 07:14:52;;;;;;;6.95;5.32;;;;;;;;;;4971990;28;25093;-77
2023/05/21 07:17:18;;;;;;;9.50;5.50;;;;;;;;;;4971598;28;25062;-75
2023/05/21 07:19:44;;;;;;;11.38;5.80;;;;;;;;;;4972026;28;25106;-79
2023/05/21 07:22:11;;;;;;;9.48;5.70;;;;;;;;;;4974714;28;25069;-73
2023/05/21 07:24:37;;;;;;;9.93;5.60;;;;;;;;;;4969957;28;25072;-78
2023/05/21 07:27:05;;;;;;;8.50;5.20;;;;;;;;;;4974606;28;25092;-77
2023/05/21 07:29:32;;;;;;;10.40;5.15;;;;;;;;;;4975486;28;25105;-76
2023/05/21 07:31:58;;;;;;;9.30;5.40;;;;;;;;;;4975125;28;25073;-80
2023/05/21 07:34:24;;;;;;;11.07;5.72;;;;;;;;;;4970115;28;25364;-78
2023/05/21 07:36:50;;;;;;;10.18;6.03;;;;;;;;;;4979226;28;25081;-77
2023/05/21 07:39:16;;;;;;;10.20;5.90;;;;;;;;;;4980243;28;25086;-75
2023/05/21 07:41:42;;;;;;;10.13;5.38;;;;;;;;;;4987154;28;25048;-74
2023/05/21 07:44:08;;;;;;;15.25;6.20;;;;;;;;;;4959659;28;25085;-75
2023/05/21 07:46:34;;;;;;;10.43;6.13;;;;;;;;;;4977945;28;25060;-76
2023/05/21 07:49:00;;;;;;;7.07;5.60;;;;;;;;;;4972238;28;25064;-74
2023/05/21 07:51:26;;;;;;;8.10;5.47;;;;;;;;;;4971948;28;25097;-74
2023/05/21 07:53:52;;;;;;;7.40;5.60;;;;;;;;;;4970966;28;25057;-74
2023/05/21 07:56:18;;;;;;;9.65;6.07;;;;;;;;;;4972553;28;25069;-76
2023/05/21 07:58:44;;;;;;;14.65;6.32;;;;;;;;;;4966902;28;25075;-79
2023/05/21 08:01:13;;;;;;;12.55;6.28;;;;;;;;;;4970643;28;25121;-76
2023/05/21 08:03:39;;;;;;;9.52;5.75;;;;;;;;;;4970773;28;25056;-75
2023/05/21 08:06:05;;;;;;;9.52;5.50;;;;;;;;;;4974342;28;25066;-78
2023/05/21 08:08:32;;;;;;;13.68;5.28;;;;;;;;;;4969984;28;25099;-75
2023/05/21 08:10:58;;;;;;;10.02;6.53;;;;;;;;;;4970894;28;25094;-75
2023/05/21 08:13:24;;;;;;;10.30;5.90;;;;;;;;;;4970536;28;25058;-77
2023/05/21 08:15:50;;;;;;;9.73;6.15;;;;;;;;;;4969458;28;25135;-75
2023/05/21 08:18:16;;;;;;;7.45;6.03;;;;;;;;;;4970549;28;25164;-78
2023/05/21 08:20:42;;;;;;;11.20;6.45;;;;;;;;;;4972578;28;25062;-76
2023/05/21 08:23:08;;;;;;;10.18;6.32;;;;;;;;;;4970930;28;25101;-77
2023/05/21 08:25:34;;;;;;;9.50;5.72;;;;;;;;;;4973350;28;25109;-77
2023/05/21 08:28:00;;;;;;;11.45;5.80;;;;;;;;;;4967131;28;25061;-80
2023/05/21 08:30:26;;;;;;;9.27;5.70;;;;;;;;;;4971444;28;25081;-77
2023/05/21 08:32:53;;;;;;;7.50;5.78;;;;;;;;;;4973657;28;25079;-80
2023/05/21 08:35:19;;;;;;;11.07;6.25;;;;;;;;;;4973524;28;25046;-73
2023/05/21 08:37:45;;;;;;;9.35;6.10;;;;;;;;;;4974317;28;25106;-77
2023/05/21 08:40:12;;;;;;;10.68;5.90;;;;;;;;;;4983270;28;25081;-82
2023/05/21 08:42:45;;;;;;;9.27;6.45;;;;;;;;;;4971034;28;25177;-79
2023/05/21 08:45:15;;;;;;;12.90;5.88;;;;;;;;;;4982315;28;25055;-77
2023/05/21 08:47:45;;;;;;;8.60;6.10;;;;;;;;;;4986198;28;25095;-81
2023/05/21 08:50:17;;;;;;;10.48;6.95;;;;;;;;;;4973332;28;25060;-73
2023/05/21 08:52:43;;;;;;;9.75;6.75;;;;;;;;;;4969157;28;25050;-77
2023/05/21 08:55:09;;;;;;;11.68;6.57;;;;;;;;;;4976990;28;25081;-76
2023/05/21 08:57:35;;;;;;;7.72;5.53;;;;;;;;;;4972408;28;25045;-77
2023/05/21 09:00:03;;;;;;;13.40;6.90;;;;;;;;;;4974112;28;25074;-77
2023/05/21 09:02:32;;;;;;;8.35;5.97;;;;;;;;;;4968636;28;25069;-79
2023/05/21 09:05:01;;;;;;;11.07;7.00;;;;;;;;;;4986013;28;25050;-82
2023/05/21 09:07:28;;;;;;;10.82;7.03;;;;;;;;;;4984439;28;25063;-78
2023/05/21 09:09:56;;;;;;;8.30;6.07;;;;;;;;;;4974251;28;25056;-78
2023/05/21 09:12:22;;;;;;;8.10;6.30;;;;;;;;;;4974959;28;25160;-77
2023/05/21 09:14:49;;;;;;;10.23;5.75;;;;;;;;;;4975049;28;25117;-78
2023/05/21 09:17:15;;;;;;;11.25;6.25;;;;;;;;;;4980844;28;25061;-74
2023/05/21 09:20:00;;;;;;;15.35;6.82;;;;;;;;;;4980250;28;25070;-78
2023/05/21 09:22:26;;;;;;;9.15;5.85;;;;;;;;;;4977459;28;25122;-77
2023/05/21 09:24:52;;;;;;;8.25;5.35;;;;;;;;;;4976587;28;25078;-77
2023/05/21 09:27:18;;;;;;;11.23;6.00;;;;;;;;;;4975341;28;25061;-74
2023/05/21 09:29:44;;;;;;;9.65;5.35;;;;;;;;;;4972583;28;25123;-80
2023/05/21 09:32:11;;;;;;;13.73;6.32;;;;;;;;;;4970451;28;25069;-77
2023/05/21 09:34:37;;;;;;;9.02;6.15;;;;;;;;;;4977351;28;25050;-78
2023/05/21 09:37:03;;;;;;;10.43;6.43;;;;;;;;;;4975088;28;25065;-79
2023/05/21 09:39:29;;;;;;;9.98;6.55;;;;;;;;;;4972883;28;25061;-78
2023/05/21 09:41:58;;;;;;;7.90;5.80;;;;;;;;;;4974898;28;25084;-79
2023/05/21 09:44:24;;;;;;;8.57;5.88;;;;;;;;;;4976309;28;25098;-79
2023/05/21 09:46:57;;;;;;;9.18;5.78;;;;;;;;;;4977885;28;25070;-75
2023/05/21 09:49:23;;;;;;;9.07;6.15;;;;;;;;;;4973750;28;25071;-76
2023/05/21 09:51:49;;;;;;;9.98;5.38;;;;;;;;;;4976473;28;25068;-75
2023/05/21 09:54:15;;;;;;;8.60;5.97;;;;;;;;;;4980165;28;25136;-74
2023/05/21 09:56:41;;;;;;;9.13;5.82;;;;;;;;;;4974496;28;25068;-75
2023/05/21 09:59:07;;;;;;;10.23;5.78;;;;;;;;;;4971837;28;25055;-75
2023/05/21 10:01:34;;;;;;;7.75;5.72;;;;;;;;;;4974918;28;25093;-76
2023/05/21 10:04:01;;;;;;;15.80;6.43;;;;;;;;;;4972992;28;25054;-75
2023/05/21 10:06:32;;;;;;;11.15;6.93;;;;;;;;;;4974329;28;25166;-79
2023/05/21 10:09:03;;;;;;;9.57;6.60;;;;;;;;;;4972537;28;25086;-78
2023/05/21 10:11:30;;;;;;;14.05;6.88;;;;;;;;;;4972853;28;25116;-76
2023/05/21 10:14:07;;;;;;;12.65;6.90;;;;;;;;;;4972159;28;25153;-77
2023/05/21 10:16:34;;;;;;;8.70;5.82;;;;;;;;;;4971363;28;25151;-73
2023/05/21 10:19:00;;;;;;;9.50;5.68;;;;;;;;;;4969874;28;25060;-75
2023/05/21 10:21:26;;;;;;;8.95;6.28;;;;;;;;;;4971427;28;25098;-76
2023/05/21 10:23:55;;;;;;;14.52;6.47;;;;;;;;;;4972983;28;25084;-79
2023/05/21 10:26:22;;;;;;;11.35;6.68;;;;;;;;;;4972809;28;25138;-76
2023/05/21 10:28:49;;;;;;;9.07;6.40;;;;;;;;;;4972293;28;25130;-76
2023/05/21 10:31:15;;;;;;;9.50;5.75;;;;;;;;;;4973472;28;25059;-79
2023/05/21 10:33:42;;;;;;;9.63;6.53;;;;;;;;;;4970482;28;25046;-76
2023/05/21 10:36:09;;;;;;;10.38;6.30;;;;;;;;;;4973840;28;25068;-78
2023/05/21 10:38:35;;;;;;;13.57;6.82;;;;;;;;;;4974255;28;25067;-76
2023/05/21 10:41:03;;;;;;;8.93;5.85;;;;;;;;;;4974754;28;25052;-74
2023/05/21 10:43:35;;;;;;;11.70;6.70;;;;;;;;;;4971546;28;25071;-75
2023/05/21 10:46:01;;;;;;;8.02;6.25;;;;;;;;;;4957285;28;25155;-79
2023/05/21 10:48:28;;;;;;;13.02;7.13;;;;;;;;;;4966066;28;25102;-76
2023/05/21 10:51:03;;;;;;;12.70;7.57;;;;;;;;;;4972362;28;25068;-77
2023/05/21 10:53:48;;;;;;;9.85;5.63;;;;;;;;;;4970633;28;25155;-73
2023/05/21 10:56:20;;;;;;;11.30;6.70;;;;;;;;;;4973557;28;25092;-75
2023/05/21 10:58:56;;;;;;;12.63;6.88;;;;;;;;;;4981974;28;25080;-77
2023/05/21 11:01:22;;;;;;;9.90;6.50;;;;;;;;;;4984322;28;25059;-73
2023/05/21 11:03:49;;;;;;;11.45;7.10;;;;;;;;;;4976599;28;25054;-77
2023/05/21 11:06:23;;;;;;;9.82;6.28;;;;;;;;;;4972325;28;25059;-76
2023/05/21 11:08:52;;;;;;;9.50;6.25;;;;;;;;;;4968775;28;25105;-75
2023/05/21 11:11:41;;;;;;;10.82;6.28;;;;;;;;;;4974541;28;25096;-77
2023/05/21 11:14:25;;;;;;;9.48;6.25;;;;;;;;;;4972278;28;25069;-73
2023/05/21 11:16:51;;;;;;;10.52;6.38;;;;;;;;;;4972377;28;25073;-79
2023/05/21 11:19:17;;;;;;;13.00;6.15;;;;;;;;;;4970967;28;25155;-76
2023/05/21 11:21:43;;;;;;;10.40;6.55;;;;;;;;;;4974346;28;25104;-77
2023/05/21 11:24:17;;;;;;;10.23;6.68;;;;;;;;;;4972233;28;25076;-78
2023/05/21 11:26:54;;;;;;;9.93;5.80;;;;;;;;;;4973464;28;25072;-79
2023/05/21 11:29:20;;;;;;;11.93;6.28;;;;;;;;;;4988095;28;25082;-78
2023/05/21 11:31:46;;;;;;;11.38;6.07;;;;;;;;;;4978726;28;25098;-75
2023/05/21 11:34:27;;;;;;;9.00;5.72;;;;;;;;;;4970326;28;25073;-76
2023/05/21 11:37:13;;;;;;;9.50;5.78;;;;;;;;;;4971101;28;25080;-76
2023/05/21 11:39:39;;;;;;;11.45;6.55;;;;;;;;;;4971700;28;25042;-77
2023/05/21 11:42:05;;;;;;;9.25;5.75;;;;;;;;;;4973223;28;25052;-76
2023/05/21 11:44:43;;;;;;;11.45;6.43;;;;;;;;;;4973762;28;25051;-76
2023/05/21 11:47:10;;;;;;;10.25;6.60;;;;;;;;;;4967395;28;25075;-75
2023/05/21 11:49:36;;;;;;;7.63;5.60;;;;;;;;;;4972394;28;25055;-76
2023/05/21 11:52:03;;;;;;;10.82;6.47;;;;;;;;;;4968952;28;25085;-75
2023/05/21 11:54:35;;;;;;;10.85;5.88;;;;;;;;;;4973995;28;25049;-75
2023/05/21 11:57:01;;;;;;;10.25;6.05;;;;;;;;;;4973146;28;25137;-77
2023/05/21 11:59:27;;;;;;;10.30;6.15;;;;;;;;;;4973132;28;25052;-77
2023/05/21 12:01:54;;;;;;;9.68;6.15;;;;;;;;;;4976851;28;25056;-75
2023/05/21 12:04:21;;;;;;;9.95;6.03;;;;;;;;;;4975898;28;25098;-75
2023/05/21 12:06:49;;;;;;;12.27;6.45;;;;;;;;;;4979935;28;25071;-77
2023/05/21 12:09:15;;;;;;;13.70;6.97;;;;;;;;;;4970706;28;25062;-76
2023/05/21 12:11:41;;;;;;;16.27;7.53;;;;;;;;;;4970710;28;25089;-75
2023/05/21 12:14:08;;;;;;;12.68;6.72;;;;;;;;;;4970573;28;25074;-77
2023/05/21 12:16:34;;;;;;;12.48;6.32;;;;;;;;;;4971759;28;25176;-76
2023/05/21 12:19:01;;;;;;;10.75;5.78;;;;;;;;;;4974751;28;25090;-80
2023/05/21 12:21:28;;;;;;;13.05;6.70;;;;;;;;;;4973714;28;25066;-79
2023/05/21 12:23:54;;;;;;;14.70;6.60;;;;;;;;;;4975049;28;25061;-76
2023/05/21 12:26:20;;;;;;;10.02;6.40;;;;;;;;;;4973231;28;25073;-77
2023/05/21 12:28:46;;;;;;;12.63;6.57;;;;;;;;;;4972274;28;25073;-77
2023/05/21 12:31:15;;;;;;;9.63;6.28;;;;;;;;;;4974780;28;25073;-77
2023/05/21 12:33:46;;;;;;;11.07;6.28;;;;;;;;;;4971609;28;25109;-81
2023/05/21 12:36:21;;;;;;;10.77;7.00;;;;;;;;;;4971427;28;25130;-77
2023/05/21 12:38:47;;;;;;;9.77;5.45;;;;;;;;;;4974694;28;25064;-76
2023/05/21 12:41:13;;;;;;;10.23;6.68;;;;;;;;;;4975420;28;25145;-74
2023/05/21 12:43:39;;;;;;;10.10;6.88;;;;;;;;;;4977118;28;25096;-79
2023/05/21 12:46:05;;;;;;;13.60;7.38;;;;;;;;;;4976148;28;25042;-73
2023/05/21 12:48:31;;;;;;;10.45;7.43;;;;;;;;;;4973302;28;25071;-78
2023/05/21 12:51:01;;;;;;;11.90;6.97;;;;;;;;;;4977550;28;25080;-76
2023/05/21 12:53:36;;;;;;;11.02;6.25;;;;;;;;;;4974662;28;25146;-75
2023/05/21 12:56:09;;;;;;;13.52;6.60;;;;;;;;;;4976247;28;25057;-77
2023/05/21 12:58:37;;;;;;;11.50;6.05;;;;;;;;;;4976068;28;25104;-72
2023/05/21 13:01:05;;;;;;;12.10;6.45;;;;;;;;;;4972840;28;25080;-73
2023/05/21 13:03:31;;;;;;;9.45;6.63;;;;;;;;;;4978179;28;25069;-77
2023/05/21 13:06:01;;;;;;;10.85;6.53;;;;;;;;;;4976671;28;25095;-75
2023/05/21 13:08:28;;;;;;;9.35;6.45;;;;;;;;;;4975639;28;25089;-75
2023/05/21 13:10:54;;;;;;;11.25;6.07;;;;;;;;;;4980549;28;25075;-74
2023/05/21 13:13:20;;;;;;;13.15;6.15;;;;;;;;;;4978503;28;25062;-76
2023/05/21 13:15:46;;;;;;;12.68;6.78;;;;;;;;;;4977353;28;25083;-76
2023/05/21 13:18:13;;;;;;;11.65;6.63;;;;;;;;;;4972464;28;25065;-74
2023/05/21 13:20:39;;;;;;;13.73;7.10;;;;;;;;;;4982776;28;25077;-76
2023/05/21 13:23:05;;;;;;;12.02;6.78;;;;;;;;;;4979371;28;25072;-73
2023/05/21 13:25:31;;;;;;;11.57;7.00;;;;;;;;;;4985834;28;25082;-75
2023/05/21 13:28:01;;;;;;;10.05;6.63;;;;;;;;;;4983813;28;25083;-76
2023/05/21 13:30:27;;;;;;;8.88;5.75;;;;;;;;;;4987695;28;25096;-77
2023/05/21 13:32:53;;;;;;;11.38;6.60;;;;;;;;;;4985463;28;25070;-78
2023/05/21 13:35:20;;;;;;;9.05;6.72;;;;;;;;;;4982060;28;25063;-76
2023/05/21 13:37:46;;;;;;;12.50;7.25;;;;;;;;;;4978331;28;25060;-74
2023/05/21 13:40:15;;;;;;;9.60;6.45;;;;;;;;;;4981369;28;25074;-77
2023/05/21 13:42:45;;;;;;;10.70;6.57;;;;;;;;;;4982671;28;25061;-75
2023/05/21 13:45:12;;;;;;;8.38;5.82;;;;;;;;;;4978054;28;25098;-75
2023/05/21 13:47:38;;;;;;;9.88;7.07;;;;;;;;;;4968347;28;25100;-77
2023/05/21 13:50:04;;;;;;;12.65;7.50;;;;;;;;;;4970239;28;25072;-74
2023/05/21 13:52:30;;;;;;;11.57;6.82;;;;;;;;;;4963981;28;25129;-78
2023/05/21 13:54:56;;;;;;;11.57;7.25;;;;;;;;;;4965893;28;25061;-75
2023/05/21 13:57:25;;;;;;;15.95;7.15;;;;;;;;;;4964545;28;25171;-77
2023/05/21 13:59:51;;;;;;;13.85;7.68;;;;;;;;;;4964569;28;25167;-75
2023/05/21 14:02:17;;;;;;;13.65;7.22;;;;;;;;;;4964416;28;25095;-77
2023/05/21 14:04:43;;;;;;;11.65;6.75;;;;;;;;;;4969546;28;25077;-79
2023/05/21 14:07:10;;;;;;;13.25;7.53;;;;;;;;;;4967365;28;25073;-79
2023/05/21 14:09:36;;;;;;;10.18;6.53;;;;;;;;;;4969069;28;25091;-77
2023/05/21 14:12:04;;;;;;;9.77;6.40;;;;;;;;;;4966457;28;25111;-76
2023/05/21 14:14:32;;;;;;;12.82;6.95;;;;;;;;;;4965666;28;25082;-76
2023/05/21 14:16:58;;;;;;;12.70;7.57;;;;;;;;;;4982979;28;25063;-80
2023/05/21 14:19:24;;;;;;;12.65;6.53;;;;;;;;;;4977580;28;25081;-77
2023/05/21 14:21:51;;;;;;;15.70;6.95;;;;;;;;;;4968502;28;25063;-80
2023/05/21 14:24:17;;;;;;;11.55;6.60;;;;;;;;;;4966612;28;25052;-76
2023/05/21 14:26:43;;;;;;;14.38;6.82;;;;;;;;;;4967783;28;25056;-79
2023/05/21 14:29:09;;;;;;;8.43;6.10;;;;;;;;;;4962667;28;25147;-77
2023/05/21 14:31:35;;;;;;;11.50;6.80;;;;;;;;;;4971828;28;25079;-78
2023/05/21 14:34:01;;;;;;;16.17;6.80;;;;;;;;;;4967420;28;25141;-77
2023/05/21 14:36:28;;;;;;;12.57;7.20;;;;;;;;;;4970304;28;25118;-76